Time;durP1;ratioP1;P1;durP2;ratioP2;P2;SDS_P1;SDS_P2;PMS_P1;PMS_P2;Temp;Humidity;BMP_temperature;BMP_pressure;BME280_temperature;BME280_humidity;BME280_pressure;Samples;Min_cycle;Max_cycle;Signal;HPM_P1;HPM_P2
2022/10/14 00:00:11;;;;;;;29.90;19.97;;;12.20;99.90;;;;;;5096004;28;20933;-67
2022/10/14 00:02:38;;;;;;;26.20;21.47;;;12.20;99.90;;;;;;5095752;28;20921;-67
2022/10/14 00:05:05;;;;;;;27.43;20.70;;;12.10;99.90;;;;;;5095416;28;20544;-67
2022/10/14 00:07:32;;;;;;;28.40;21.00;;;12.10;99.90;;;;;;5095738;28;20989;-68
2022/10/14 00:09:59;;;;;;;26.70;21.27;;;12.10;99.90;;;;;;5095746;28;20828;-68
2022/10/14 00:12:26;;;;;;;27.23;19.60;;;12.10;99.90;;;;;;5095477;28;20544;-68
2022/10/14 00:14:55;;;;;;;26.80;20.23;;;12.10;99.90;;;;;;5095793;28;20483;-68
2022/10/14 00:17:22;;;;;;;25.60;19.70;;;12.00;99.90;;;;;;5095888;28;20514;-67
2022/10/14 00:19:49;;;;;;;26.17;19.23;;;12.00;99.90;;;;;;5095996;28;20844;-68
2022/10/14 00:22:16;;;;;;;24.87;19.70;;;12.00;99.90;;;;;;5095542;28;21027;-68
2022/10/14 00:24:43;;;;;;;26.13;19.87;;;12.00;99.90;;;;;;5095152;28;20478;-68
2022/10/14 00:27:09;;;;;;;29.77;20.80;;;12.00;99.90;;;;;;5095538;28;20544;-68
2022/10/14 00:29:36;;;;;;;27.57;19.63;;;11.90;99.90;;;;;;5095344;28;20540;-66
2022/10/14 00:32:05;;;;;;;28.80;21.23;;;11.90;99.90;;;;;;5095650;28;20567;-66
2022/10/14 00:34:32;;;;;;;30.97;21.40;;;12.00;99.90;;;;;;5095714;28;20837;-66
2022/10/14 00:36:58;;;;;;;30.90;22.00;;;11.90;99.90;;;;;;5095248;28;20948;-66
2022/10/14 00:39:25;;;;;;;29.53;22.60;;;11.90;99.90;;;;;;5094938;28;20547;-67
2022/10/14 00:41:52;;;;;;;28.90;21.50;;;11.90;99.90;;;;;;5095352;28;20536;-67
2022/10/14 00:44:56;;;;;;;31.00;22.30;;;11.80;99.90;;;;;;5095280;28;20466;-67
2022/10/14 00:47:25;;;;;;;31.33;22.60;;;11.80;99.90;;;;;;5095617;28;20547;-67
2022/10/14 00:49:51;;;;;;;27.60;21.43;;;11.80;99.90;;;;;;5095145;28;20540;-67
2022/10/14 00:52:21;;;;;;;27.20;21.83;;;11.80;99.90;;;;;;5095457;28;20830;-67
2022/10/14 00:54:51;;;;;;;27.03;21.73;;;11.70;99.90;;;;;;5095473;28;20453;-67
2022/10/14 00:57:19;;;;;;;30.27;22.27;;;11.70;99.90;;;;;;5096928;28;20968;-67
2022/10/14 00:59:46;;;;;;;28.53;22.40;;;11.70;99.90;;;;;;5096772;28;20846;-67
2022/10/14 01:02:13;;;;;;;28.30;21.27;;;11.70;99.90;;;;;;5095720;28;20540;-67
2022/10/14 01:04:42;;;;;;;27.47;21.53;;;11.70;99.90;;;;;;5095189;28;20832;-66
2022/10/14 01:07:16;;;;;;;29.60;21.33;;;11.70;99.90;;;;;;5094981;28;20980;-67
2022/10/14 01:09:51;;;;;;;28.90;20.97;;;11.70;99.90;;;;;;5095057;28;20544;-67
2022/10/14 01:12:26;;;;;;;26.73;20.23;;;11.70;99.90;;;;;;5095253;28;20465;-66
2022/10/14 01:15:03;;;;;;;27.23;22.20;;;11.70;99.90;;;;;;5095303;28;20825;-68
2022/10/14 01:17:37;;;;;;;30.60;21.20;;;11.70;99.90;;;;;;5099047;28;20448;-67
2022/10/14 01:20:31;;;;;;;28.50;19.97;;;11.70;99.90;;;;;;5098912;28;20473;-67
2022/10/14 01:23:15;;;;;;;22.93;19.23;;;11.70;99.90;;;;;;5099416;28;20434;-67
2022/10/14 01:25:56;;;;;;;29.10;20.47;;;11.70;99.90;;;;;;5098851;28;20443;-67
2022/10/14 01:28:30;;;;;;;25.20;19.47;;;11.70;99.90;;;;;;5099267;28;20436;-67
2022/10/14 01:31:02;;;;;;;20.80;18.60;;;11.60;99.90;;;;;;5099399;28;20438;-67
2022/10/14 01:33:36;;;;;;;27.80;18.83;;;11.60;99.90;;;;;;5099404;28;20465;-67
2022/10/14 01:36:08;;;;;;;25.17;19.70;;;11.60;99.90;;;;;;5099098;28;20452;-67
2022/10/14 01:38:38;;;;;;;27.53;20.07;;;11.60;99.90;;;;;;5099306;28;20452;-66
2022/10/14 01:41:11;;;;;;;23.83;19.40;;;11.60;99.90;;;;;;5099222;28;20454;-67
2022/10/14 01:43:39;;;;;;;24.43;18.70;;;11.60;99.90;;;;;;5099180;28;20463;-66
2022/10/14 01:46:09;;;;;;;26.60;18.93;;;11.60;99.90;;;;;;5098563;28;20552;-67
2022/10/14 01:48:40;;;;;;;26.73;19.03;;;11.50;99.90;;;;;;5098904;28;20482;-66
2022/10/14 01:51:14;;;;;;;21.70;16.57;;;11.50;99.90;;;;;;5098426;28;20453;-67
2022/10/14 01:53:44;;;;;;;23.60;18.30;;;11.50;99.90;;;;;;5099560;28;20526;-67
2022/10/14 01:56:12;;;;;;;21.23;18.17;;;11.50;99.90;;;;;;5098559;28;20464;-67
2022/10/14 01:58:40;;;;;;;22.13;17.70;;;11.50;99.90;;;;;;5098619;28;20457;-66
2022/10/14 02:01:09;;;;;;;23.10;19.00;;;11.40;99.90;;;;;;5098763;28;20955;-66
2022/10/14 02:03:41;;;;;;;24.20;19.10;;;11.40;99.90;;;;;;5098960;28;20449;-67
2022/10/14 02:06:14;;;;;;;28.23;18.80;;;11.40;99.90;;;;;;5098783;28;20457;-67
2022/10/14 02:09:02;;;;;;;27.73;18.57;;;11.40;99.90;;;;;;5098349;28;20885;-67
2022/10/14 02:11:34;;;;;;;24.60;18.43;;;11.40;99.90;;;;;;5098782;28;20442;-67
2022/10/14 02:14:15;;;;;;;25.43;19.13;;;11.40;99.90;;;;;;5098451;28;20815;-67
2022/10/14 02:16:49;;;;;;;22.70;18.33;;;11.40;99.90;;;;;;5098320;28;20461;-67
2022/10/14 02:19:28;;;;;;;24.23;18.47;;;11.40;99.90;;;;;;5098203;28;20441;-67
2022/10/14 02:22:04;;;;;;;25.27;19.17;;;11.40;99.90;;;;;;5098023;28;20444;-67
2022/10/14 02:24:34;;;;;;;22.90;19.30;;;11.30;99.90;;;;;;5098189;28;20495;-67
2022/10/14 02:27:05;;;;;;;28.67;21.20;;;11.30;99.90;;;;;;5098023;28;20457;-67
2022/10/14 02:29:34;;;;;;;22.37;18.53;;;11.30;99.90;;;;;;5098116;28;20434;-67
2022/10/14 02:32:04;;;;;;;25.10;19.10;;;11.20;99.90;;;;;;5097635;28;20459;-67
2022/10/14 02:34:32;;;;;;;27.97;20.33;;;11.20;99.90;;;;;;5097938;28;20455;-67
2022/10/14 02:37:00;;;;;;;25.83;19.43;;;11.20;99.90;;;;;;5097534;28;20921;-67
2022/10/14 02:39:30;;;;;;;24.50;20.00;;;11.20;99.90;;;;;;5097693;28;20453;-67
2022/10/14 02:41:57;;;;;;;25.87;19.40;;;11.10;99.90;;;;;;5097815;28;20464;-67
2022/10/14 02:44:24;;;;;;;24.30;20.03;;;11.20;99.90;;;;;;5097417;28;20781;-67
2022/10/14 02:46:51;;;;;;;28.30;20.33;;;11.10;99.90;;;;;;5097128;28;20923;-67
2022/10/14 02:49:19;;;;;;;27.17;19.97;;;11.10;99.90;;;;;;5097622;28;20468;-67
2022/10/14 02:51:46;;;;;;;23.20;18.57;;;11.10;99.90;;;;;;5097593;28;20465;-67
2022/10/14 02:54:13;;;;;;;26.67;17.97;;;11.10;99.90;;;;;;5097087;28;20473;-67
2022/10/14 02:56:40;;;;;;;24.03;18.03;;;11.10;99.90;;;;;;5097479;28;20453;-67
2022/10/14 02:59:07;;;;;;;28.80;18.90;;;11.10;99.90;;;;;;5097660;28;20457;-67
2022/10/14 03:01:34;;;;;;;25.63;17.83;;;11.10;99.90;;;;;;5097247;28;20465;-68
2022/10/14 03:04:00;;;;;;;22.13;16.87;;;11.10;99.90;;;;;;5096994;28;20510;-68
2022/10/14 03:06:29;;;;;;;23.50;17.80;;;11.10;99.90;;;;;;5097375;28;20453;-68
2022/10/14 03:08:55;;;;;;;21.43;17.50;;;11.10;99.90;;;;;;5097274;28;20450;-68
2022/10/14 03:11:22;;;;;;;21.07;17.10;;;11.10;99.90;;;;;;5096992;28;20484;-67
2022/10/14 03:13:49;;;;;;;21.17;16.20;;;11.10;99.90;;;;;;5097126;28;20487;-68
2022/10/14 03:16:16;;;;;;;23.53;16.43;;;11.20;99.90;;;;;;5096820;28;20466;-67
2022/10/14 03:18:43;;;;;;;19.80;15.67;;;11.20;99.90;;;;;;5096832;28;20454;-67
2022/10/14 03:21:09;;;;;;;24.43;16.97;;;11.20;99.90;;;;;;5096815;28;20553;-67
2022/10/14 03:23:37;;;;;;;23.77;17.40;;;11.20;99.90;;;;;;5096461;28;20473;-67
2022/10/14 03:26:04;;;;;;;21.90;15.80;;;11.20;99.90;;;;;;5096916;28;20452;-67
2022/10/14 03:28:31;;;;;;;21.30;15.87;;;11.30;99.90;;;;;;5096666;28;20457;-67
2022/10/14 03:30:58;;;;;;;22.17;16.57;;;11.30;99.90;;;;;;5097390;28;20465;-67
2022/10/14 03:33:25;;;;;;;25.90;17.77;;;11.30;99.90;;;;;;5096318;28;20485;-67
2022/10/14 03:35:52;;;;;;;17.60;14.70;;;11.40;99.90;;;;;;5096468;28;20453;-67
2022/10/14 03:38:18;;;;;;;21.00;16.17;;;11.40;99.90;;;;;;5095822;28;20563;-67
2022/10/14 03:40:47;;;;;;;22.97;15.67;;;11.40;99.90;;;;;;5096626;28;20463;-67
2022/10/14 03:43:13;;;;;;;21.60;16.03;;;11.40;99.90;;;;;;5096044;28;20449;-67
2022/10/14 03:45:40;;;;;;;23.60;16.57;;;11.40;99.90;;;;;;5096298;28;20548;-67
2022/10/14 03:48:07;;;;;;;21.03;16.17;;;11.40;99.90;;;;;;5095859;28;20458;-67
2022/10/14 03:50:34;;;;;;;22.03;15.37;;;11.40;99.90;;;;;;5096079;28;20620;-67
2022/10/14 03:53:01;;;;;;;20.80;15.73;;;11.40;99.90;;;;;;5095710;28;20484;-67
2022/10/14 03:55:28;;;;;;;22.03;16.40;;;11.40;99.90;;;;;;5096248;28;20782;-67
2022/10/14 03:57:56;;;;;;;23.83;16.30;;;11.40;99.90;;;;;;5095877;28;20468;-67
2022/10/14 04:00:23;;;;;;;20.30;15.67;;;11.30;99.90;;;;;;5096056;28;20460;-67
2022/10/14 04:02:50;;;;;;;23.20;16.53;;;11.30;99.90;;;;;;5095698;28;20457;-67
2022/10/14 04:05:17;;;;;;;21.70;15.27;;;11.30;99.90;;;;;;5095951;28;20475;-67
2022/10/14 04:07:44;;;;;;;21.30;16.30;;;11.30;99.90;;;;;;5095737;28;20453;-67
2022/10/14 04:10:10;;;;;;;24.43;17.57;;;11.30;99.90;;;;;;5095826;28;20865;-67
2022/10/14 04:12:38;;;;;;;21.17;16.77;;;11.20;99.90;;;;;;5095715;28;20483;-67
2022/10/14 04:15:08;;;;;;;22.53;16.73;;;11.20;99.90;;;;;;5095894;28;20492;-67
2022/10/14 04:17:35;;;;;;;23.80;17.37;;;11.20;99.90;;;;;;5095736;28;20479;-67
2022/10/14 04:20:01;;;;;;;23.90;17.83;;;11.10;99.90;;;;;;5095289;28;20454;-67
2022/10/14 04:22:28;;;;;;;26.03;17.00;;;11.10;99.90;;;;;;5095643;28;20460;-67
2022/10/14 04:24:55;;;;;;;23.20;16.77;;;11.00;99.90;;;;;;5095052;28;20477;-67
2022/10/14 04:27:22;;;;;;;23.53;18.17;;;10.90;99.90;;;;;;5095443;28;20546;-67
2022/10/14 04:29:49;;;;;;;24.43;18.67;;;10.90;99.90;;;;;;5095180;28;20464;-67
2022/10/14 04:32:17;;;;;;;28.53;18.23;;;10.90;99.90;;;;;;5095522;28;20453;-67
2022/10/14 04:34:44;;;;;;;21.77;17.80;;;10.90;99.90;;;;;;5097114;28;20526;-67
2022/10/14 04:37:12;;;;;;;23.60;17.67;;;10.90;99.90;;;;;;5097713;28;20463;-67
2022/10/14 04:39:38;;;;;;;26.53;18.67;;;10.80;99.90;;;;;;5096033;28;20457;-67
2022/10/14 04:42:05;;;;;;;22.20;16.13;;;10.80;99.90;;;;;;5095180;28;20478;-67
2022/10/14 04:44:32;;;;;;;25.50;18.97;;;10.80;99.90;;;;;;5095061;28;20449;-67
2022/10/14 04:46:59;;;;;;;32.17;17.37;;;10.80;99.90;;;;;;5094972;28;20987;-67
2022/10/14 04:49:27;;;;;;;22.83;17.60;;;10.80;99.90;;;;;;5095144;28;20540;-67
2022/10/14 04:51:54;;;;;;;21.37;16.80;;;10.80;99.90;;;;;;5094252;28;20453;-67
2022/10/14 04:54:21;;;;;;;23.43;16.80;;;10.80;99.90;;;;;;5095077;28;20809;-68
2022/10/14 04:56:47;;;;;;;23.33;17.07;;;10.90;99.90;;;;;;5094883;28;20552;-68
2022/10/14 04:59:14;;;;;;;26.13;17.83;;;10.90;99.90;;;;;;5094999;28;20854;-68
2022/10/14 05:01:41;;;;;;;23.60;17.30;;;10.90;99.90;;;;;;5094607;28;20959;-68
2022/10/14 05:04:08;;;;;;;22.23;18.00;;;10.90;99.90;;;;;;5094825;28;20449;-68
2022/10/14 05:06:37;;;;;;;21.90;17.17;;;11.00;99.90;;;;;;5094617;28;20558;-68
2022/10/14 05:09:04;;;;;;;30.30;17.00;;;11.00;99.90;;;;;;5094552;28;20565;-68
2022/10/14 05:11:31;;;;;;;23.00;16.97;;;11.00;99.90;;;;;;5094744;28;20467;-68
2022/10/14 05:13:58;;;;;;;23.03;16.97;;;11.00;99.90;;;;;;5094746;28;20477;-68
2022/10/14 05:16:25;;;;;;;20.47;16.47;;;11.00;99.90;;;;;;5094576;28;20457;-67
2022/10/14 05:18:53;;;;;;;31.70;16.40;;;11.00;99.90;;;;;;5094369;28;20460;-67
2022/10/14 05:21:19;;;;;;;22.70;18.03;;;11.00;99.90;;;;;;5095325;28;20751;-67
2022/10/14 05:23:47;;;;;;;25.90;19.30;;;11.10;99.90;;;;;;5094256;28;20477;-67
2022/10/14 05:26:14;;;;;;;27.40;18.37;;;11.10;99.90;;;;;;5094460;28;20465;-67
2022/10/14 05:28:41;;;;;;;24.20;16.93;;;11.10;99.90;;;;;;5094440;28;20458;-68
2022/10/14 05:31:08;;;;;;;24.13;17.70;;;11.10;99.90;;;;;;5094531;28;21075;-67
2022/10/14 05:33:35;;;;;;;27.43;17.43;;;11.10;99.90;;;;;;5094367;28;20783;-67
2022/10/14 05:36:02;;;;;;;22.47;15.77;;;11.10;99.90;;;;;;5094253;28;20500;-67
2022/10/14 05:38:31;;;;;;;21.60;16.60;;;11.10;99.90;;;;;;5094413;28;20463;-67
2022/10/14 05:40:59;;;;;;;26.00;18.13;;;11.10;99.90;;;;;;5094265;28;20983;-67
2022/10/14 05:43:26;;;;;;;27.17;16.77;;;11.20;99.90;;;;;;5093915;28;20541;-67
2022/10/14 05:45:53;;;;;;;21.70;16.10;;;11.20;99.90;;;;;;5094632;28;20481;-67
2022/10/14 05:48:20;;;;;;;20.07;16.30;;;11.20;99.90;;;;;;5093755;28;20553;-67
2022/10/14 05:50:47;;;;;;;21.67;16.30;;;11.30;99.90;;;;;;5093643;28;20449;-67
2022/10/14 05:53:14;;;;;;;27.13;18.20;;;11.30;99.90;;;;;;5093989;28;20827;-67
2022/10/14 05:55:41;;;;;;;24.03;17.53;;;11.40;99.90;;;;;;5094288;28;20468;-67
2022/10/14 05:58:09;;;;;;;24.70;15.87;;;11.40;99.90;;;;;;5094090;28;20809;-67
2022/10/14 06:00:36;;;;;;;24.43;18.27;;;11.50;99.90;;;;;;5093763;28;20453;-67
2022/10/14 06:03:03;;;;;;;20.47;15.97;;;11.50;99.90;;;;;;5096470;28;20479;-67
2022/10/14 06:05:30;;;;;;;24.37;16.77;;;11.60;99.90;;;;;;5097410;28;20539;-67
2022/10/14 06:07:57;;;;;;;18.97;15.50;;;11.60;99.90;;;;;;5097789;28;20457;-67
2022/10/14 06:10:23;;;;;;;22.27;15.67;;;11.70;99.90;;;;;;5097864;28;20453;-67
2022/10/14 06:12:50;;;;;;;25.50;16.10;;;11.70;99.90;;;;;;5097763;28;20556;-67
2022/10/14 06:15:18;;;;;;;22.57;15.83;;;11.80;99.90;;;;;;5097530;28;20488;-68
2022/10/14 06:17:45;;;;;;;19.40;16.53;;;11.80;99.90;;;;;;5097764;28;20464;-67
2022/10/14 06:20:12;;;;;;;24.67;16.17;;;11.80;99.90;;;;;;5097767;28;20453;-67
2022/10/14 06:22:39;;;;;;;26.50;17.10;;;11.80;99.90;;;;;;5097624;28;20452;-68
2022/10/14 06:25:06;;;;;;;24.10;16.90;;;11.90;99.90;;;;;;5097965;28;20477;-68
2022/10/14 06:27:33;;;;;;;23.37;18.30;;;11.90;99.90;;;;;;5097437;28;20464;-67
2022/10/14 06:30:00;;;;;;;48.47;37.77;;;11.90;99.90;;;;;;5097756;28;20548;-66
2022/10/14 06:32:28;;;;;;;48.23;34.77;;;12.00;99.90;;;;;;5097434;28;20544;-68
2022/10/14 06:34:55;;;;;;;22.43;16.67;;;12.00;99.90;;;;;;5097509;28;20564;-67
2022/10/14 06:37:22;;;;;;;24.43;16.10;;;12.10;99.90;;;;;;5097478;28;20558;-67
2022/10/14 06:39:48;;;;;;;30.03;18.67;;;12.20;99.90;;;;;;5096994;28;20453;-67
2022/10/14 06:42:15;;;;;;;20.60;16.60;;;12.20;99.90;;;;;;5097268;28;20453;-66
2022/10/14 06:44:42;;;;;;;24.10;17.23;;;12.20;99.90;;;;;;5097148;28;20453;-66
2022/10/14 06:47:09;;;;;;;22.37;16.47;;;12.20;99.90;;;;;;5097554;28;20790;-67
2022/10/14 06:49:37;;;;;;;27.83;21.17;;;12.20;99.90;;;;;;5097541;28;20454;-67
2022/10/14 06:52:04;;;;;;;21.53;15.80;;;12.30;99.90;;;;;;5096940;28;20538;-67
2022/10/14 06:54:31;;;;;;;21.40;16.53;;;12.30;99.90;;;;;;5097103;28;20477;-67
2022/10/14 06:56:58;;;;;;;25.73;16.73;;;12.30;99.90;;;;;;5097112;28;20459;-67
2022/10/14 06:59:27;;;;;;;20.00;16.70;;;12.30;99.90;;;;;;5097440;28;20827;-67
2022/10/14 07:01:54;;;;;;;23.87;16.03;;;12.40;99.90;;;;;;5097107;28;20463;-67
2022/10/14 07:04:20;;;;;;;20.57;15.90;;;12.50;99.90;;;;;;5097100;28;20540;-67
2022/10/14 07:06:50;;;;;;;19.53;16.13;;;12.50;99.90;;;;;;5096508;28;20458;-67
2022/10/14 07:09:17;;;;;;;26.00;17.30;;;12.50;99.90;;;;;;5096602;28;20511;-67
2022/10/14 07:11:44;;;;;;;20.37;17.40;;;12.50;99.90;;;;;;5096664;28;20454;-68
2022/10/14 07:14:11;;;;;;;26.80;17.50;;;12.60;99.90;;;;;;5094823;28;20584;-67
2022/10/14 07:16:38;;;;;;;27.47;18.23;;;12.60;99.90;;;;;;5096344;28;20454;-67
2022/10/14 07:19:04;;;;;;;20.40;16.10;;;12.60;99.90;;;;;;5096374;28;20453;-67
2022/10/14 07:21:31;;;;;;;21.33;15.53;;;12.60;99.90;;;;;;5096311;28;20540;-67
2022/10/14 07:24:00;;;;;;;29.10;16.97;;;12.70;99.90;;;;;;5096151;28;20477;-68
2022/10/14 07:26:26;;;;;;;26.80;16.30;;;12.70;99.90;;;;;;5097123;28;20453;-67
2022/10/14 07:28:54;;;;;;;23.97;15.93;;;12.80;99.90;;;;;;5096243;28;20766;-68
2022/10/14 07:31:21;;;;;;;20.03;15.73;;;12.80;99.90;;;;;;5096252;28;20453;-68
2022/10/14 07:33:47;;;;;;;23.40;16.60;;;12.80;99.90;;;;;;5096148;28;20459;-69
2022/10/14 07:36:17;;;;;;;26.53;15.40;;;12.80;99.90;;;;;;5096149;28;20457;-68
2022/10/14 07:38:45;;;;;;;25.17;16.50;;;12.90;99.90;;;;;;5096106;28;20453;-68
2022/10/14 07:41:17;;;;;;;22.23;15.67;;;12.90;99.90;;;;;;5095985;28;20929;-70
2022/10/14 07:43:44;;;;;;;25.33;16.77;;;13.00;99.90;;;;;;5096525;28;20441;-67
2022/10/14 07:46:12;;;;;;;22.83;16.13;;;13.00;99.90;;;;;;5096699;28;20768;-67
2022/10/14 07:48:39;;;;;;;23.27;16.27;;;13.10;99.90;;;;;;5096536;28;20457;-67
2022/10/14 07:51:07;;;;;;;20.60;15.27;;;13.00;99.90;;;;;;5095863;28;20463;-67
2022/10/14 07:53:34;;;;;;;23.43;16.10;;;13.10;99.90;;;;;;5095846;28;20453;-67
2022/10/14 07:56:01;;;;;;;27.67;17.03;;;13.10;99.90;;;;;;5096062;28;20484;-67
2022/10/14 07:58:31;;;;;;;18.30;15.00;;;13.20;99.90;;;;;;5095757;28;20454;-66
2022/10/14 08:00:58;;;;;;;19.27;14.33;;;13.20;99.90;;;;;;5095689;28;20737;-67
2022/10/14 08:03:25;;;;;;;19.23;15.43;;;13.30;99.90;;;;;;5095436;28;20453;-68
2022/10/14 08:05:59;;;;;;;19.80;14.73;;;13.30;99.90;;;;;;5095816;28;20540;-67
2022/10/14 08:08:28;;;;;;;24.97;16.33;;;13.40;99.90;;;;;;5096151;28;20835;-67
2022/10/14 08:11:02;;;;;;;23.03;15.63;;;13.40;99.90;;;;;;5096251;28;20787;-67
2022/10/14 08:13:31;;;;;;;20.13;15.23;;;13.50;99.90;;;;;;5097278;28;20536;-67
2022/10/14 08:15:58;;;;;;;22.70;15.00;;;13.50;99.90;;;;;;5097236;28;20545;-67
2022/10/14 08:18:25;;;;;;;21.30;15.30;;;13.60;99.90;;;;;;5096926;28;20468;-67
2022/10/14 08:20:52;;;;;;;22.10;16.97;;;13.70;99.90;;;;;;5096117;28;20519;-68
2022/10/14 08:23:19;;;;;;;20.90;15.93;;;13.70;99.90;;;;;;5095979;28;20544;-68
2022/10/14 08:25:48;;;;;;;21.50;16.20;;;13.80;99.90;;;;;;5095567;28;20528;-67
2022/10/14 08:28:15;;;;;;;19.33;15.33;;;13.80;99.90;;;;;;5095659;28;20489;-68
2022/10/14 08:30:44;;;;;;;25.87;18.20;;;13.80;99.90;;;;;;5095528;28;20449;-67
2022/10/14 08:33:13;;;;;;;22.07;16.43;;;13.80;99.90;;;;;;5095421;28;20453;-67
2022/10/14 08:35:40;;;;;;;27.20;16.20;;;13.80;99.90;;;;;;5095255;28;20531;-69
2022/10/14 08:38:07;;;;;;;22.63;17.03;;;13.80;99.90;;;;;;5095691;28;20534;-67
2022/10/14 08:40:51;;;;;;;25.27;16.77;;;13.90;99.90;;;;;;5095396;28;20454;-68
2022/10/14 08:43:24;;;;;;;28.30;16.83;;;14.10;99.90;;;;;;5095810;28;20452;-67
2022/10/14 08:45:56;;;;;;;22.00;15.73;;;14.30;99.90;;;;;;5094988;28;20760;-68
2022/10/14 08:48:28;;;;;;;18.63;16.47;;;14.50;99.90;;;;;;5094936;28;20473;-67
2022/10/14 08:51:01;;;;;;;20.37;16.60;;;14.70;99.90;;;;;;5095008;28;20438;-68
2022/10/14 08:53:34;;;;;;;34.33;26.90;;;14.80;99.90;;;;;;5095534;28;20468;-68
2022/10/14 08:56:02;;;;;;;28.53;17.47;;;15.10;99.90;;;;;;5095349;28;20542;-68
2022/10/14 08:58:34;;;;;;;19.50;15.07;;;15.30;99.90;;;;;;5094697;28;20468;-67
2022/10/14 09:01:09;;;;;;;24.80;14.90;;;15.40;99.90;;;;;;5094641;28;20830;-68
2022/10/14 09:03:36;;;;;;;17.57;15.10;;;15.60;99.90;;;;;;5094564;28;20437;-68
2022/10/14 09:06:05;;;;;;;21.20;14.80;;;15.70;99.90;;;;;;5094521;28;20540;-68
2022/10/14 09:08:38;;;;;;;21.70;14.50;;;15.80;99.90;;;;;;5094592;28;20949;-68
2022/10/14 09:11:07;;;;;;;21.73;14.53;;;16.00;99.90;;;;;;5094833;28;20730;-68
2022/10/14 09:13:36;;;;;;;17.97;14.33;;;16.10;99.90;;;;;;5094454;28;20514;-68
2022/10/14 09:16:09;;;;;;;20.93;14.47;;;16.10;99.90;;;;;;5094533;28;20509;-68
2022/10/14 09:18:39;;;;;;;24.13;13.90;;;16.10;99.90;;;;;;5094749;28;20467;-68
2022/10/14 09:21:26;;;;;;;24.90;14.20;;;16.00;99.90;;;;;;5094520;28;20441;-67
2022/10/14 09:23:58;;;;;;;21.83;14.83;;;16.10;99.90;;;;;;5094915;28;20520;-67
2022/10/14 09:26:35;;;;;;;16.97;13.70;;;16.10;99.90;;;;;;5095268;28;20438;-67
2022/10/14 09:29:02;;;;;;;23.13;13.17;;;16.20;99.90;;;;;;5094778;28;20544;-68
2022/10/14 09:31:31;;;;;;;18.10;12.40;;;16.20;99.90;;;;;;5094274;28;20453;-68
2022/10/14 09:33:57;;;;;;;19.90;13.80;;;16.30;99.90;;;;;;5094771;28;20453;-67
2022/10/14 09:36:24;;;;;;;16.00;12.63;;;16.20;99.90;;;;;;5094259;28;20489;-67
2022/10/14 09:38:55;;;;;;;16.07;13.53;;;16.30;99.90;;;;;;5098721;28;20453;-68
2022/10/14 09:41:26;;;;;;;19.27;12.83;;;16.30;99.90;;;;;;5098751;28;20437;-68
2022/10/14 09:44:17;;;;;;;19.17;13.93;;;16.30;99.90;;;;;;5098679;28;20445;-67
2022/10/14 09:46:49;;;;;;;17.17;13.40;;;16.30;99.90;;;;;;5098643;28;20528;-68
2022/10/14 09:49:22;;;;;;;20.03;13.67;;;16.30;99.90;;;;;;5098533;28;20552;-68
2022/10/14 09:51:50;;;;;;;19.73;13.80;;;16.40;99.90;;;;;;5098434;28;20449;-68
2022/10/14 09:54:24;;;;;;;17.10;13.63;;;16.50;99.90;;;;;;5098562;28;20449;-68
2022/10/14 09:56:59;;;;;;;19.53;12.77;;;16.50;99.90;;;;;;5098383;28;20433;-67
2022/10/14 09:59:26;;;;;;;18.27;14.07;;;16.60;99.90;;;;;;5098482;28;20437;-69
2022/10/14 10:01:58;;;;;;;19.77;14.40;;;16.70;99.90;;;;;;5098782;28;20532;-67
2022/10/14 10:04:31;;;;;;;19.33;12.93;;;16.80;99.90;;;;;;5098316;28;20540;-69
2022/10/14 10:07:00;;;;;;;19.73;14.00;;;16.90;99.90;;;;;;5097768;28;20433;-68
2022/10/14 10:09:27;;;;;;;20.30;14.27;;;17.00;99.90;;;;;;5097996;28;20449;-67
2022/10/14 10:11:55;;;;;;;14.67;13.00;;;17.10;99.90;;;;;;5098044;28;20545;-67
2022/10/14 10:14:25;;;;;;;20.87;13.50;;;17.10;99.90;;;;;;5097516;28;20456;-68
2022/10/14 10:17:13;;;;;;;25.50;12.27;;;17.20;99.90;;;;;;5097738;28;20455;-68
2022/10/14 10:19:42;;;;;;;17.53;12.70;;;17.20;99.90;;;;;;5097723;28;20469;-68
2022/10/14 10:22:23;;;;;;;18.47;13.40;;;17.20;99.90;;;;;;5097317;28;20548;-68
2022/10/14 10:24:52;;;;;;;18.37;13.97;;;17.30;99.90;;;;;;5097485;28;20895;-68
2022/10/14 10:27:21;;;;;;;17.50;12.40;;;17.30;99.90;;;;;;5097300;28;20453;-68
2022/10/14 10:29:48;;;;;;;18.10;14.30;;;17.40;99.90;;;;;;5097528;28;20536;-68
2022/10/14 10:32:22;;;;;;;20.80;14.73;;;17.50;99.90;;;;;;5097816;28;20459;-68
2022/10/14 10:35:10;;;;;;;19.43;14.60;;;17.60;99.90;;;;;;5097750;28;20438;-67
2022/10/14 10:37:44;;;;;;;15.23;13.30;;;17.70;99.90;;;;;;5097444;28;20442;-68
2022/10/14 10:40:38;;;;;;;19.60;14.20;;;17.80;99.90;;;;;;5098143;28;20726;-68
2022/10/14 10:43:27;;;;;;;17.97;13.33;;;17.80;99.90;;;;;;5097054;28;20442;-68
2022/10/14 10:46:09;;;;;;;16.53;13.50;;;17.90;99.90;;;;;;5097338;28;20816;-68
2022/10/14 10:48:45;;;;;;;21.10;13.53;;;18.00;99.90;;;;;;5096221;28;20449;-68
2022/10/14 10:51:17;;;;;;;17.60;13.00;;;18.10;99.90;;;;;;5097254;28;20441;-68
2022/10/14 10:54:06;;;;;;;16.93;14.20;;;18.10;99.90;;;;;;5096877;28;20913;-67
2022/10/14 10:56:40;;;;;;;17.60;13.47;;;18.20;99.90;;;;;;5097306;28;20465;-69
2022/10/14 10:59:34;;;;;;;18.93;12.83;;;18.10;99.90;;;;;;5096457;28;20444;-68
2022/10/14 11:02:21;;;;;;;18.73;13.93;;;18.00;99.90;;;;;;5096857;28;20893;-67
2022/10/14 11:04:59;;;;;;;19.13;14.50;;;17.90;99.90;;;;;;5096744;28;20437;-68
2022/10/14 11:13:26;;;;;;;17.93;12.83;;;17.60;99.90;;;;;;5097160;28;20552;-68
2022/10/14 11:15:59;;;;;;;17.30;13.20;;;17.60;99.90;;;;;;5096307;28;20465;-68
2022/10/14 11:18:34;;;;;;;14.33;12.20;;;17.60;99.90;;;;;;5096617;28;20780;-68
2022/10/14 11:21:10;;;;;;;14.77;11.73;;;17.60;99.90;;;;;;5096390;28;20438;-68
2022/10/14 11:23:48;;;;;;;14.47;11.37;;;17.70;99.90;;;;;;5096538;28;20481;-68
2022/10/14 11:26:27;;;;;;;16.63;12.00;;;17.80;99.90;;;;;;5096985;28;20437;-67
2022/10/14 11:29:02;;;;;;;17.80;12.30;;;17.90;99.90;;;;;;5096705;28;20446;-68
2022/10/14 11:31:37;;;;;;;15.90;11.33;;;18.00;99.90;;;;;;5096530;28;20881;-68
2022/10/14 11:34:23;;;;;;;14.97;10.87;;;18.00;99.90;;;;;;5096340;28;20441;-68
2022/10/14 11:37:03;;;;;;;13.27;11.97;;;18.00;99.90;;;;;;5096230;28;20491;-67
2022/10/14 11:39:38;;;;;;;16.63;12.30;;;18.00;99.90;;;;;;5096432;28;20442;-67
2022/10/14 11:42:19;;;;;;;17.23;11.87;;;18.00;99.90;;;;;;5096200;28;20477;-68
2022/10/14 11:44:47;;;;;;;16.93;11.60;;;18.10;99.90;;;;;;5096361;28;20452;-68
2022/10/14 11:47:20;;;;;;;15.07;11.23;;;18.50;99.90;;;;;;5096548;28;20449;-68
2022/10/14 11:49:54;;;;;;;12.60;11.30;;;19.00;99.90;;;;;;5097039;28;20518;-69
2022/10/14 11:52:28;;;;;;;14.40;11.70;;;19.30;99.90;;;;;;5097490;28;20474;-69
2022/10/14 11:55:02;;;;;;;13.70;10.83;;;19.50;99.90;;;;;;5096890;28;20446;-68
2022/10/14 11:57:34;;;;;;;14.37;11.57;;;19.60;99.90;;;;;;5097101;28;20441;-68
2022/10/14 12:00:04;;;;;;;14.93;12.17;;;19.60;99.90;;;;;;5095851;28;20542;-68
2022/10/14 12:02:38;;;;;;;14.20;11.80;;;19.70;99.90;;;;;;5096556;28;20532;-68
2022/10/14 12:05:14;;;;;;;14.57;11.97;;;19.80;99.90;;;;;;5096476;28;20736;-68
2022/10/14 12:07:49;;;;;;;14.87;11.67;;;20.20;99.90;;;;;;5095696;28;20532;-68
2022/10/14 12:10:24;;;;;;;14.07;9.27;;;20.70;99.90;;;;;;5095732;28;20775;-68
2022/10/14 12:12:51;;;;;;;13.90;11.07;;;21.20;99.90;;;;;;5095660;28;20452;-67
2022/10/14 12:15:22;;;;;;;13.93;9.53;;;21.60;99.90;;;;;;5094928;28;20463;-68
2022/10/14 12:17:53;;;;;;;11.00;9.07;;;21.50;99.90;;;;;;5095924;28;20926;-69
2022/10/14 12:20:32;;;;;;;16.90;10.13;;;21.00;99.90;;;;;;5095668;28;20464;-68
2022/10/14 12:23:02;;;;;;;12.03;9.93;;;20.50;99.90;;;;;;5095693;28;20503;-68
2022/10/14 12:25:35;;;;;;;12.43;10.03;;;20.10;99.90;;;;;;5095024;28;20484;-68
2022/10/14 12:28:03;;;;;;;12.90;9.90;;;19.70;99.90;;;;;;5095357;28;20506;-68
2022/10/14 12:30:36;;;;;;;12.70;9.20;;;19.40;99.90;;;;;;5095416;28;20788;-68
2022/10/14 12:33:05;;;;;;;11.63;9.67;;;19.10;99.90;;;;;;5094994;28;20457;-69
2022/10/14 12:35:58;;;;;;;10.93;9.70;;;18.90;99.90;;;;;;5095213;28;20513;-68
2022/10/14 12:38:27;;;;;;;12.47;9.70;;;18.60;99.90;;;;;;5095966;28;20816;-68
2022/10/14 12:40:55;;;;;;;15.03;10.20;;;18.40;99.90;;;;;;5095060;28;20457;-68
2022/10/14 12:43:25;;;;;;;12.20;9.57;;;18.20;99.90;;;;;;5094925;28;20789;-68
2022/10/14 12:46:01;;;;;;;13.03;9.37;;;18.10;99.90;;;;;;5094752;28;20477;-68
2022/10/14 12:48:32;;;;;;;14.60;10.00;;;18.00;99.90;;;;;;5094753;28;20441;-69